createdAt,value
2018-12-16T00:00:40.384Z,1015.25
2018-12-16T00:01:21.434Z,1015.29
2018-12-16T00:02:02.131Z,1015.27
2018-12-16T00:02:42.850Z,1015.23
2018-12-16T00:03:23.594Z,1015.21
2018-12-16T00:04:04.400Z,1015.24
2018-12-16T00:04:49.758Z,1015.18
2018-12-16T00:05:26.028Z,1015.17
2018-12-16T00:06:06.979Z,1015.22
2018-12-16T00:06:47.687Z,1015.23
2018-12-16T00:07:28.410Z,1015.18
2018-12-16T00:08:09.231Z,1015.19
2018-12-16T00:08:50.034Z,1015.16
2018-12-16T00:09:30.776Z,1015.18
2018-12-16T00:10:11.530Z,1015.17
2018-12-16T00:10:52.306Z,1015.11
2018-12-16T00:11:33.147Z,1015.14
2018-12-16T00:12:14.210Z,1015.14
2018-12-16T00:12:54.911Z,1015.09
2018-12-16T00:13:35.660Z,1015.12
2018-12-16T00:14:16.524Z,1015.11
2018-12-16T00:14:57.326Z,1015.07
2018-12-16T00:15:38.154Z,1015.09
2018-12-16T00:16:18.970Z,1015.06
2018-12-16T00:16:59.647Z,1015.04
2018-12-16T00:17:40.424Z,1015.03
2018-12-16T00:18:21.190Z,1014.98
2018-12-16T00:19:01.944Z,1014.96
2018-12-16T00:19:42.647Z,1014.98
2018-12-16T00:20:23.394Z,1014.97
2018-12-16T00:21:04.179Z,1014.95
2018-12-16T00:21:44.951Z,1014.99
2018-12-16T00:22:29.814Z,1014.92
2018-12-16T00:23:06.459Z,1014.95
2018-12-16T00:23:47.206Z,1014.96
2018-12-16T00:24:28.049Z,1014.96
2018-12-16T00:25:08.841Z,1014.96
2018-12-16T00:25:49.567Z,1014.98
2018-12-16T00:26:30.348Z,1015
2018-12-16T00:27:11.131Z,1014.99
2018-12-16T00:27:51.843Z,1014.99
2018-12-16T00:28:32.592Z,1015
2018-12-16T00:29:13.351Z,1014.99
2018-12-16T00:29:54.163Z,1015.04
2018-12-16T00:30:34.933Z,1015.04
2018-12-16T00:31:15.760Z,1015.06
2018-12-16T00:31:56.545Z,1014.99
2018-12-16T00:32:37.276Z,1015.01
2018-12-16T00:33:18.024Z,1014.99
2018-12-16T00:33:58.816Z,1015
2018-12-16T00:34:39.575Z,1014.96
2018-12-16T00:35:20.267Z,1015
2018-12-16T00:36:01.055Z,1014.94
2018-12-16T00:36:41.867Z,1014.93
2018-12-16T00:37:22.687Z,1014.95
2018-12-16T00:38:03.472Z,1014.95
2018-12-16T00:38:44.159Z,1014.97
2018-12-16T00:39:24.914Z,1014.96
2018-12-16T00:40:05.619Z,1014.95
2018-12-16T00:40:46.430Z,1014.92
2018-12-16T00:41:27.224Z,1014.91
2018-12-16T00:42:07.998Z,1014.92
2018-12-16T00:42:48.716Z,1014.91
2018-12-16T00:43:29.417Z,1014.91
2018-12-16T00:44:10.236Z,1014.89
2018-12-16T00:44:50.968Z,1014.86
2018-12-16T00:45:31.698Z,1014.89
2018-12-16T00:46:12.508Z,1014.88
2018-12-16T00:46:53.268Z,1014.9
2018-12-16T00:47:34.030Z,1014.92
2018-12-16T00:48:14.848Z,1014.91
2018-12-16T00:48:55.631Z,1014.93
2018-12-16T00:49:36.323Z,1014.87
2018-12-16T00:50:17.091Z,1014.88
2018-12-16T00:50:57.787Z,1014.85
2018-12-16T00:51:38.611Z,1014.83
2018-12-16T00:52:19.364Z,1014.82
2018-12-16T00:53:00.112Z,1014.83
2018-12-16T00:53:40.886Z,1014.82
2018-12-16T00:54:21.694Z,1014.8
2018-12-16T00:55:02.493Z,1014.79
2018-12-16T00:55:43.252Z,1014.8
2018-12-16T00:56:23.945Z,1014.79
2018-12-16T00:57:04.810Z,1014.8
2018-12-16T00:57:45.541Z,1014.82
2018-12-16T00:58:26.292Z,1014.82
2018-12-16T00:59:07.035Z,1014.81
2018-12-16T00:59:47.762Z,1014.83
2018-12-16T01:00:28.575Z,1014.8
2018-12-16T01:01:09.365Z,1014.83
2018-12-16T01:01:50.095Z,1014.79
2018-12-16T01:02:30.944Z,1014.8
2018-12-16T01:03:11.761Z,1014.78
2018-12-16T01:03:52.592Z,1014.8
2018-12-16T01:04:33.362Z,1014.87
2018-12-16T01:05:14.076Z,1014.87
2018-12-16T01:05:54.805Z,1014.89
2018-12-16T01:06:35.678Z,1014.89
2018-12-16T01:07:16.490Z,1014.89
2018-12-16T01:07:57.311Z,1014.91
2018-12-16T01:08:38.097Z,1014.9
2018-12-16T01:09:18.851Z,1014.92
2018-12-16T01:09:59.628Z,1014.96
2018-12-16T01:10:40.396Z,1014.98
2018-12-16T01:11:21.089Z,1014.96
2018-12-16T01:12:01.799Z,1014.98
2018-12-16T01:12:42.539Z,1014.94
2018-12-16T01:13:23.347Z,1014.95
2018-12-16T01:14:04.114Z,1014.94
2018-12-16T01:14:44.841Z,1014.92
2018-12-16T01:15:25.643Z,1014.95
2018-12-16T01:16:06.490Z,1014.9
2018-12-16T01:16:47.274Z,1014.93
2018-12-16T01:17:28.089Z,1014.98
2018-12-16T01:18:08.812Z,1014.97
2018-12-16T01:18:49.648Z,1014.95
2018-12-16T01:19:30.361Z,1014.96
2018-12-16T01:20:11.154Z,1015
2018-12-16T01:20:51.870Z,1015.01
2018-12-16T01:21:32.601Z,1015
2018-12-16T01:22:13.406Z,1015.01
2018-12-16T01:22:54.170Z,1015.01
2018-12-16T01:23:34.956Z,1014.99
2018-12-16T01:24:15.733Z,1015
2018-12-16T01:24:56.462Z,1014.99
2018-12-16T01:25:37.165Z,1015.03
2018-12-16T01:26:17.969Z,1015.04
2018-12-16T01:26:58.749Z,1015.04
2018-12-16T01:27:39.494Z,1014.98
2018-12-16T01:28:20.283Z,1015.04
2018-12-16T01:29:01.085Z,1015.08
2018-12-16T01:29:41.898Z,1015.02
2018-12-16T01:30:22.629Z,1015
2018-12-16T01:31:03.366Z,1014.98
2018-12-16T01:31:44.131Z,1014.97
2018-12-16T01:32:24.949Z,1015.04
2018-12-16T01:33:05.659Z,1015.07
2018-12-16T01:33:46.388Z,1015.03
2018-12-16T01:34:27.098Z,1015.04
2018-12-16T01:35:07.926Z,1015.07
2018-12-16T01:35:48.671Z,1015.07
2018-12-16T01:36:29.431Z,1015.08
2018-12-16T01:37:10.227Z,1015.08
2018-12-16T01:37:51.045Z,1015.08
2018-12-16T01:38:31.860Z,1015.07
2018-12-16T01:39:12.663Z,1015.08
2018-12-16T01:39:53.428Z,1015.06
2018-12-16T01:40:34.164Z,1015.1
2018-12-16T01:41:14.885Z,1015.09
2018-12-16T01:41:55.670Z,1015.09
2018-12-16T01:42:36.550Z,1015.09
2018-12-16T01:43:17.288Z,1015.05
2018-12-16T01:43:58.074Z,1015.06
2018-12-16T01:44:38.832Z,1015.03
2018-12-16T01:45:19.700Z,1015.01
2018-12-16T01:46:00.414Z,1015.03
2018-12-16T01:46:41.116Z,1015.04
2018-12-16T01:47:21.935Z,1015.03
2018-12-16T01:48:02.758Z,1014.98
2018-12-16T01:48:43.638Z,1014.92
2018-12-16T01:49:24.484Z,1014.91
2018-12-16T01:50:05.214Z,1014.91
2018-12-16T01:50:45.946Z,1014.88
2018-12-16T01:51:26.712Z,1014.89
2018-12-16T01:52:07.434Z,1014.86
2018-12-16T01:52:50.256Z,1014.82
2018-12-16T01:53:29.044Z,1014.83
2018-12-16T01:54:09.775Z,1014.86
2018-12-16T01:54:50.652Z,1014.85
2018-12-16T01:55:31.460Z,1014.87
2018-12-16T01:56:12.314Z,1014.84
2018-12-16T01:56:53.099Z,1014.79
2018-12-16T01:57:33.773Z,1014.8
2018-12-16T01:58:14.585Z,1014.8
2018-12-16T01:58:55.363Z,1014.85
2018-12-16T01:59:36.211Z,1014.82
2018-12-16T02:00:17.046Z,1014.81
2018-12-16T02:00:57.777Z,1014.8
2018-12-16T02:01:38.502Z,1014.78
2018-12-16T02:02:19.359Z,1014.78
2018-12-16T02:03:00.186Z,1014.83
2018-12-16T02:03:40.857Z,1014.85
2018-12-16T02:04:21.586Z,1014.84
2018-12-16T02:05:02.305Z,1014.83
2018-12-16T02:05:43.159Z,1014.86
2018-12-16T02:06:24.009Z,1014.84
2018-12-16T02:07:04.716Z,1014.89
2018-12-16T02:07:45.538Z,1014.84
2018-12-16T02:08:26.317Z,1014.85
2018-12-16T02:09:07.160Z,1014.9
2018-12-16T02:09:47.925Z,1014.88
2018-12-16T02:10:28.631Z,1014.87
2018-12-16T02:11:09.450Z,1014.84
2018-12-16T02:11:50.218Z,1014.82
2018-12-16T02:12:31.006Z,1014.81
2018-12-16T02:13:11.757Z,1014.8
2018-12-16T02:13:52.552Z,1014.79
2018-12-16T02:14:33.376Z,1014.8
2018-12-16T02:15:14.178Z,1014.76
2018-12-16T02:15:55.007Z,1014.76
2018-12-16T02:16:35.741Z,1014.77
2018-12-16T02:17:16.481Z,1014.72
2018-12-16T02:17:59.301Z,1014.75
2018-12-16T02:18:40.130Z,1014.71
2018-12-16T02:19:20.867Z,1014.73
2018-12-16T02:20:01.565Z,1014.73
2018-12-16T02:20:42.324Z,1014.7
2018-12-16T02:21:23.112Z,1014.73
2018-12-16T02:22:03.907Z,1014.74
2018-12-16T02:22:44.695Z,1014.74
2018-12-16T02:23:25.423Z,1014.71
2018-12-16T02:24:06.165Z,1014.7
2018-12-16T02:24:46.933Z,1014.71
2018-12-16T02:25:27.755Z,1014.68
2018-12-16T02:26:08.513Z,1014.68
2018-12-16T02:26:49.340Z,1014.67
2018-12-16T02:27:30.085Z,1014.7
2018-12-16T02:28:10.855Z,1014.65
2018-12-16T02:28:51.699Z,1014.63
2018-12-16T02:29:32.405Z,1014.59
2018-12-16T02:30:13.128Z,1014.62
2018-12-16T02:30:53.840Z,1014.58
2018-12-16T02:31:34.589Z,1014.58
2018-12-16T02:32:15.469Z,1014.56
2018-12-16T02:32:56.249Z,1014.58
2018-12-16T02:33:37.028Z,1014.6
2018-12-16T02:34:17.822Z,1014.59
2018-12-16T02:34:58.558Z,1014.59
2018-12-16T02:35:39.283Z,1014.59
2018-12-16T02:36:20.132Z,1014.56
2018-12-16T02:37:00.838Z,1014.56
2018-12-16T02:37:41.654Z,1014.6
2018-12-16T02:38:22.512Z,1014.6
2018-12-16T02:39:03.323Z,1014.62
2018-12-16T02:39:44.157Z,1014.63
2018-12-16T02:40:24.906Z,1014.65
2018-12-16T02:41:05.753Z,1014.66
2018-12-16T02:41:46.603Z,1014.64
2018-12-16T02:42:27.371Z,1014.67
2018-12-16T02:43:08.094Z,1014.65
2018-12-16T02:43:48.805Z,1014.66
2018-12-16T02:44:29.578Z,1014.65
2018-12-16T02:45:10.364Z,1014.61
2018-12-16T02:45:51.136Z,1014.62
2018-12-16T02:46:31.853Z,1014.64
2018-12-16T02:47:12.700Z,1014.64
2018-12-16T02:47:53.431Z,1014.61
2018-12-16T02:48:34.244Z,1014.62
2018-12-16T02:49:14.971Z,1014.6
2018-12-16T02:49:55.660Z,1014.6
2018-12-16T02:50:36.397Z,1014.61
2018-12-16T02:51:17.135Z,1014.63
2018-12-16T02:51:57.954Z,1014.6
2018-12-16T02:52:38.792Z,1014.62
2018-12-16T02:53:19.542Z,1014.56
2018-12-16T02:54:00.277Z,1014.56
2018-12-16T02:54:41.071Z,1014.57
2018-12-16T02:55:21.821Z,1014.55
2018-12-16T02:56:02.550Z,1014.55
2018-12-16T02:56:43.309Z,1014.51
2018-12-16T02:57:24.012Z,1014.51
2018-12-16T02:58:04.811Z,1014.47
2018-12-16T02:58:45.551Z,1014.46
2018-12-16T02:59:26.358Z,1014.47
2018-12-16T03:00:07.077Z,1014.49
2018-12-16T03:00:47.765Z,1014.51
2018-12-16T03:01:28.482Z,1014.47
2018-12-16T03:02:09.254Z,1014.49
2018-12-16T03:02:50.077Z,1014.48
2018-12-16T03:03:30.779Z,1014.47
2018-12-16T03:04:11.558Z,1014.45
2018-12-16T03:04:52.361Z,1014.47
2018-12-16T03:05:33.169Z,1014.49
2018-12-16T03:06:13.905Z,1014.46
2018-12-16T03:06:54.600Z,1014.47
2018-12-16T03:07:35.298Z,1014.49
2018-12-16T03:08:16.023Z,1014.49
2018-12-16T03:08:56.802Z,1014.51
2018-12-16T03:09:37.544Z,1014.44
2018-12-16T03:10:18.369Z,1014.47
2018-12-16T03:10:59.085Z,1014.5
2018-12-16T03:11:39.803Z,1014.48
2018-12-16T03:12:20.648Z,1014.51
2018-12-16T03:13:01.405Z,1014.49
2018-12-16T03:13:42.108Z,1014.47
2018-12-16T03:14:22.844Z,1014.49
2018-12-16T03:15:03.647Z,1014.46
2018-12-16T03:15:44.442Z,1014.43
2018-12-16T03:16:25.134Z,1014.44
2018-12-16T03:17:05.895Z,1014.4
2018-12-16T03:17:46.718Z,1014.37
2018-12-16T03:18:27.499Z,1014.35
2018-12-16T03:19:08.281Z,1014.37
2018-12-16T03:19:49.010Z,1014.38
2018-12-16T03:20:29.756Z,1014.33
2018-12-16T03:21:10.565Z,1014.36
2018-12-16T03:21:51.271Z,1014.33
2018-12-16T03:22:32.004Z,1014.35
2018-12-16T03:23:12.751Z,1014.29
2018-12-16T03:23:53.475Z,1014.26
2018-12-16T03:24:34.267Z,1014.26
2018-12-16T03:25:15.096Z,1014.26
2018-12-16T03:25:55.855Z,1014.29
2018-12-16T03:26:36.613Z,1014.27
2018-12-16T03:27:17.348Z,1014.29
2018-12-16T03:27:58.098Z,1014.27
2018-12-16T03:28:38.894Z,1014.25
2018-12-16T03:29:19.598Z,1014.22
2018-12-16T03:30:00.341Z,1014.21
2018-12-16T03:30:41.156Z,1014.22
2018-12-16T03:31:21.926Z,1014.19
2018-12-16T03:32:02.758Z,1014.17
2018-12-16T03:32:43.501Z,1014.21
2018-12-16T03:33:24.327Z,1014.16
2018-12-16T03:34:05.122Z,1014.21
2018-12-16T03:34:45.874Z,1014.15
2018-12-16T03:35:26.601Z,1014.1
2018-12-16T03:36:07.325Z,1014.12
2018-12-16T03:36:48.131Z,1014.09
2018-12-16T03:37:28.943Z,1014.11
2018-12-16T03:38:09.632Z,1014.14
2018-12-16T03:38:50.367Z,1014.16
2018-12-16T03:39:31.202Z,1014.14
2018-12-16T03:40:12.005Z,1014.15
2018-12-16T03:40:52.828Z,1014.18
2018-12-16T03:41:33.572Z,1014.15
2018-12-16T03:42:14.275Z,1014.11
2018-12-16T03:42:55.009Z,1014.11
2018-12-16T03:43:35.788Z,1014.15
2018-12-16T03:44:16.579Z,1014.08
2018-12-16T03:44:57.365Z,1014.07
2018-12-16T03:45:38.101Z,1014.1
2018-12-16T03:46:18.831Z,1014.11
2018-12-16T03:46:59.609Z,1014.07
2018-12-16T03:47:40.411Z,1014.11
2018-12-16T03:48:21.170Z,1014.07
2018-12-16T03:49:01.902Z,1014.07
2018-12-16T03:49:42.625Z,1014.05
2018-12-16T03:50:23.484Z,1014.05
2018-12-16T03:51:04.287Z,1014.07
2018-12-16T03:51:45.038Z,1014.03
2018-12-16T03:52:25.816Z,1013.99
2018-12-16T03:53:06.619Z,1014
2018-12-16T03:53:47.435Z,1014.03
2018-12-16T03:54:28.150Z,1014.01
2018-12-16T03:55:08.912Z,1014.03
2018-12-16T03:55:49.776Z,1014.06
2018-12-16T03:56:30.516Z,1014.04
2018-12-16T03:57:11.212Z,1014.04
2018-12-16T03:57:51.925Z,1014.03
2018-12-16T03:58:32.668Z,1014.04
2018-12-16T03:59:13.500Z,1014.06
2018-12-16T03:59:54.269Z,1014.03
2018-12-16T04:00:35.094Z,1014.02
2018-12-16T04:01:15.862Z,1014
2018-12-16T04:01:56.552Z,1013.95
2018-12-16T04:02:37.279Z,1013.95
2018-12-16T04:03:18.037Z,1013.93
2018-12-16T04:03:58.827Z,1013.93
2018-12-16T04:04:39.523Z,1013.91
2018-12-16T04:05:20.302Z,1013.94
2018-12-16T04:06:01.135Z,1013.93
2018-12-16T04:06:43.214Z,1013.95
2018-12-16T04:07:22.729Z,1013.92
2018-12-16T04:08:03.463Z,1013.92
2018-12-16T04:08:44.181Z,1013.9
2018-12-16T04:09:24.964Z,1013.91
2018-12-16T04:10:05.776Z,1013.9
2018-12-16T04:10:46.551Z,1013.88
2018-12-16T04:11:27.344Z,1013.87
2018-12-16T04:12:08.080Z,1013.91
2018-12-16T04:12:48.842Z,1013.86
2018-12-16T04:13:29.655Z,1013.91
2018-12-16T04:14:10.381Z,1013.88
2018-12-16T04:14:51.102Z,1013.88
2018-12-16T04:15:32.559Z,1013.87
2018-12-16T04:16:13.353Z,1013.86
2018-12-16T04:16:54.138Z,1013.9
2018-12-16T04:17:34.971Z,1013.84
2018-12-16T04:18:15.743Z,1013.89
2018-12-16T04:18:56.476Z,1013.9
2018-12-16T04:19:37.233Z,1013.88
2018-12-16T04:20:17.965Z,1013.91
2018-12-16T04:20:58.844Z,1013.88
2018-12-16T04:21:39.569Z,1013.89
2018-12-16T04:22:20.319Z,1013.83
2018-12-16T04:23:01.141Z,1013.83
2018-12-16T04:23:41.932Z,1013.82
2018-12-16T04:24:22.772Z,1013.77
2018-12-16T04:25:03.493Z,1013.78
2018-12-16T04:25:44.267Z,1013.75
2018-12-16T04:26:25.058Z,1013.76
2018-12-16T04:27:05.753Z,1013.72
2018-12-16T04:27:46.444Z,1013.77
2018-12-16T04:28:27.177Z,1013.77
2018-12-16T04:29:07.936Z,1013.74
2018-12-16T04:29:48.745Z,1013.77
2018-12-16T04:30:29.425Z,1013.74
2018-12-16T04:31:10.191Z,1013.75
2018-12-16T04:31:51.018Z,1013.76
2018-12-16T04:32:31.778Z,1013.74
2018-12-16T04:33:12.613Z,1013.81
2018-12-16T04:33:53.369Z,1013.77
2018-12-16T04:34:34.098Z,1013.78
2018-12-16T04:35:14.839Z,1013.8
2018-12-16T04:35:55.618Z,1013.81
2018-12-16T04:36:36.517Z,1013.78
2018-12-16T04:37:17.347Z,1013.82
2018-12-16T04:37:58.043Z,1013.75
2018-12-16T04:38:38.805Z,1013.76
2018-12-16T04:39:19.592Z,1013.73
2018-12-16T04:40:00.352Z,1013.71
2018-12-16T04:40:41.096Z,1013.71
2018-12-16T04:41:21.839Z,1013.7
2018-12-16T04:42:02.586Z,1013.71
2018-12-16T04:42:43.404Z,1013.74
2018-12-16T04:43:24.162Z,1013.72
2018-12-16T04:44:04.916Z,1013.76
2018-12-16T04:44:45.610Z,1013.8
2018-12-16T04:45:26.330Z,1013.81
2018-12-16T04:46:07.100Z,1013.81
2018-12-16T04:46:47.920Z,1013.79
2018-12-16T04:47:28.635Z,1013.83
2018-12-16T04:48:09.350Z,1013.79
2018-12-16T04:48:50.182Z,1013.75
2018-12-16T04:49:30.991Z,1013.74
2018-12-16T04:50:11.781Z,1013.75
2018-12-16T04:50:52.492Z,1013.8
2018-12-16T04:51:33.193Z,1013.8
2018-12-16T04:52:13.925Z,1013.81
2018-12-16T04:52:54.685Z,1013.82
2018-12-16T04:53:37.103Z,1013.82
2018-12-16T04:54:16.306Z,1013.83
2018-12-16T04:54:57.105Z,1013.82
2018-12-16T04:55:37.861Z,1013.79
2018-12-16T04:56:18.629Z,1013.77
2018-12-16T04:56:59.418Z,1013.78
2018-12-16T04:57:40.116Z,1013.76
2018-12-16T04:58:20.878Z,1013.75
2018-12-16T04:59:01.578Z,1013.74
2018-12-16T04:59:42.377Z,1013.77
2018-12-16T05:00:23.107Z,1013.75
2018-12-16T05:01:03.877Z,1013.76
2018-12-16T05:01:44.617Z,1013.76
2018-12-16T05:02:25.439Z,1013.8
2018-12-16T05:03:06.264Z,1013.8
2018-12-16T05:03:47.042Z,1013.83
2018-12-16T05:04:27.763Z,1013.85
2018-12-16T05:05:08.597Z,1013.85
2018-12-16T05:05:49.391Z,1013.87
2018-12-16T05:06:30.110Z,1013.83
2018-12-16T05:07:10.880Z,1013.83
2018-12-16T05:07:51.601Z,1013.87
2018-12-16T05:08:32.430Z,1013.85
2018-12-16T05:09:13.226Z,1013.86
2018-12-16T05:09:54.117Z,1013.84
2018-12-16T05:10:34.828Z,1013.85
2018-12-16T05:11:15.606Z,1013.81
2018-12-16T05:11:56.343Z,1013.86
2018-12-16T05:12:37.107Z,1013.86
2018-12-16T05:13:17.923Z,1013.86
2018-12-16T05:13:58.640Z,1013.85
2018-12-16T05:14:39.477Z,1013.8
2018-12-16T05:15:20.264Z,1013.81
2018-12-16T05:16:01.110Z,1013.79
2018-12-16T05:16:41.847Z,1013.78
2018-12-16T05:17:22.583Z,1013.74
2018-12-16T05:18:03.376Z,1013.71
2018-12-16T05:18:44.118Z,1013.69
2018-12-16T05:19:24.970Z,1013.67
2018-12-16T05:20:05.749Z,1013.69
2018-12-16T05:20:46.557Z,1013.66
2018-12-16T05:21:27.240Z,1013.6
2018-12-16T05:22:07.969Z,1013.61
2018-12-16T05:22:48.767Z,1013.62
2018-12-16T05:23:29.532Z,1013.63
2018-12-16T05:24:10.296Z,1013.56
2018-12-16T05:24:51.032Z,1013.58
2018-12-16T05:25:31.829Z,1013.59
2018-12-16T05:26:12.627Z,1013.58
2018-12-16T05:26:53.477Z,1013.6
2018-12-16T05:27:34.248Z,1013.62
2018-12-16T05:28:14.994Z,1013.61
2018-12-16T05:28:55.681Z,1013.59
2018-12-16T05:29:36.410Z,1013.6
2018-12-16T05:30:17.290Z,1013.62
2018-12-16T05:30:58.011Z,1013.64
2018-12-16T05:31:38.719Z,1013.66
2018-12-16T05:32:19.535Z,1013.63
2018-12-16T05:33:00.350Z,1013.59
2018-12-16T05:33:41.159Z,1013.64
2018-12-16T05:34:21.895Z,1013.65
2018-12-16T05:35:02.651Z,1013.67
2018-12-16T05:35:43.442Z,1013.67
2018-12-16T05:36:24.190Z,1013.67
2018-12-16T05:37:04.914Z,1013.69
2018-12-16T05:37:45.680Z,1013.68
2018-12-16T05:38:26.433Z,1013.68
2018-12-16T05:39:07.260Z,1013.65
2018-12-16T05:39:48.027Z,1013.64
2018-12-16T05:40:28.752Z,1013.62
2018-12-16T05:41:09.594Z,1013.58
2018-12-16T05:41:50.371Z,1013.58
2018-12-16T05:42:31.194Z,1013.61
2018-12-16T05:43:11.893Z,1013.62
2018-12-16T05:43:52.573Z,1013.6
2018-12-16T05:44:33.288Z,1013.63
2018-12-16T05:45:14.051Z,1013.64
2018-12-16T05:45:54.827Z,1013.62
2018-12-16T05:46:35.672Z,1013.6
2018-12-16T05:47:16.414Z,1013.61
2018-12-16T05:47:57.154Z,1013.62
2018-12-16T05:48:37.969Z,1013.6
2018-12-16T05:49:18.762Z,1013.61
2018-12-16T05:49:59.467Z,1013.68
2018-12-16T05:50:40.249Z,1013.62
2018-12-16T05:51:20.983Z,1013.63
2018-12-16T05:52:01.817Z,1013.66
2018-12-16T05:52:42.545Z,1013.64
2018-12-16T05:53:23.233Z,1013.62
2018-12-16T05:54:03.975Z,1013.63
2018-12-16T05:54:44.823Z,1013.61
2018-12-16T05:55:25.657Z,1013.62
2018-12-16T05:56:06.396Z,1013.6
2018-12-16T05:56:47.115Z,1013.61
2018-12-16T05:57:27.901Z,1013.57
2018-12-16T05:58:08.714Z,1013.6
2018-12-16T05:58:49.447Z,1013.59
2018-12-16T05:59:30.201Z,1013.61
2018-12-16T06:00:10.980Z,1013.59
2018-12-16T06:00:51.832Z,1013.62
2018-12-16T06:01:32.633Z,1013.65
2018-12-16T06:02:13.386Z,1013.62
2018-12-16T06:02:54.105Z,1013.64
2018-12-16T06:03:34.814Z,1013.62
2018-12-16T06:04:15.543Z,1013.62
2018-12-16T06:04:56.316Z,1013.6
2018-12-16T06:05:37.082Z,1013.63
2018-12-16T06:06:17.818Z,1013.61
2018-12-16T06:06:58.583Z,1013.62
2018-12-16T06:07:39.359Z,1013.61
2018-12-16T06:08:20.110Z,1013.6
2018-12-16T06:09:00.898Z,1013.6
2018-12-16T06:09:41.618Z,1013.69
2018-12-16T06:10:22.392Z,1013.65
2018-12-16T06:11:03.149Z,1013.68
2018-12-16T06:11:43.899Z,1013.71
2018-12-16T06:12:24.634Z,1013.7
2018-12-16T06:13:05.377Z,1013.71
2018-12-16T06:13:46.189Z,1013.74
2018-12-16T06:14:26.946Z,1013.75
2018-12-16T06:15:07.646Z,1013.76
2018-12-16T06:15:48.432Z,1013.79
2018-12-16T06:16:29.267Z,1013.77
2018-12-16T06:17:10.038Z,1013.76
2018-12-16T06:17:50.781Z,1013.76
2018-12-16T06:18:31.475Z,1013.78
2018-12-16T06:19:12.199Z,1013.75
2018-12-16T06:19:52.961Z,1013.77
2018-12-16T06:20:33.770Z,1013.74
2018-12-16T06:21:14.541Z,1013.74
2018-12-16T06:21:55.323Z,1013.71
2018-12-16T06:22:36.080Z,1013.71
2018-12-16T06:23:16.827Z,1013.76
2018-12-16T06:23:57.624Z,1013.75
2018-12-16T06:24:38.337Z,1013.79
2018-12-16T06:25:19.017Z,1013.77
2018-12-16T06:25:59.706Z,1013.8
2018-12-16T06:26:41.079Z,1013.75
2018-12-16T06:27:21.322Z,1013.77
2018-12-16T06:28:02.120Z,1013.71
2018-12-16T06:28:42.843Z,1013.73
2018-12-16T06:29:23.580Z,1013.74
2018-12-16T06:30:04.303Z,1013.8
2018-12-16T06:30:45.018Z,1013.76
2018-12-16T06:31:25.872Z,1013.74
2018-12-16T06:32:06.544Z,1013.76
2018-12-16T06:32:47.316Z,1013.73
2018-12-16T06:33:28.119Z,1013.72
2018-12-16T06:34:08.899Z,1013.71
2018-12-16T06:34:49.729Z,1013.71
2018-12-16T06:35:30.495Z,1013.68
2018-12-16T06:36:11.266Z,1013.7
2018-12-16T06:36:51.981Z,1013.69
2018-12-16T06:37:32.755Z,1013.68
2018-12-16T06:38:13.533Z,1013.7
2018-12-16T06:38:54.342Z,1013.66
2018-12-16T06:39:35.079Z,1013.69
2018-12-16T06:40:15.823Z,1013.69
2018-12-16T06:40:56.584Z,1013.7
2018-12-16T06:41:37.380Z,1013.72
2018-12-16T06:42:18.115Z,1013.71
2018-12-16T06:42:58.840Z,1013.7
2018-12-16T06:43:39.629Z,1013.68
2018-12-16T06:44:20.471Z,1013.67
2018-12-16T06:45:01.212Z,1013.64
2018-12-16T06:45:41.942Z,1013.65
2018-12-16T06:46:22.704Z,1013.66
2018-12-16T06:47:03.512Z,1013.67
2018-12-16T06:47:44.354Z,1013.65
2018-12-16T06:48:25.061Z,1013.64
2018-12-16T06:49:05.903Z,1013.63
2018-12-16T06:49:46.746Z,1013.66
2018-12-16T06:50:27.472Z,1013.67
2018-12-16T06:51:08.184Z,1013.71
2018-12-16T06:51:48.922Z,1013.7
2018-12-16T06:52:29.719Z,1013.71
2018-12-16T06:53:10.527Z,1013.71
2018-12-16T06:53:51.330Z,1013.7
2018-12-16T06:54:32.102Z,1013.73
2018-12-16T06:55:12.844Z,1013.72
2018-12-16T06:55:53.584Z,1013.77
2018-12-16T06:56:34.309Z,1013.84
2018-12-16T06:57:15.102Z,1013.88
2018-12-16T06:57:55.869Z,1013.91
2018-12-16T06:58:36.583Z,1013.89
2018-12-16T06:59:17.416Z,1013.9
2018-12-16T06:59:58.229Z,1013.91
2018-12-16T07:00:39.027Z,1013.88
2018-12-16T07:01:19.741Z,1013.87
2018-12-16T07:02:00.450Z,1013.9
2018-12-16T07:02:41.186Z,1013.88
2018-12-16T07:03:22.125Z,1013.91
2018-12-16T07:04:02.886Z,1013.9
2018-12-16T07:04:43.699Z,1013.9
2018-12-16T07:05:24.457Z,1013.89
2018-12-16T07:06:05.185Z,1013.83
2018-12-16T07:06:45.979Z,1013.84
2018-12-16T07:07:26.800Z,1013.83
2018-12-16T07:08:07.530Z,1013.79
2018-12-16T07:08:48.304Z,1013.8
2018-12-16T07:09:29.083Z,1013.8
2018-12-16T07:10:09.861Z,1013.84
2018-12-16T07:10:50.666Z,1013.89
2018-12-16T07:11:31.453Z,1013.83
2018-12-16T07:12:12.178Z,1013.86
2018-12-16T07:12:52.910Z,1013.82
2018-12-16T07:13:33.618Z,1013.82
2018-12-16T07:14:14.383Z,1013.82
2018-12-16T07:14:55.154Z,1013.8
2018-12-16T07:15:35.888Z,1013.76
2018-12-16T07:16:16.674Z,1013.78
2018-12-16T07:16:57.477Z,1013.77
2018-12-16T07:17:38.326Z,1013.82
2018-12-16T07:18:19.097Z,1013.79
2018-12-16T07:18:59.880Z,1013.85
2018-12-16T07:19:40.682Z,1013.83
2018-12-16T07:20:21.457Z,1013.84
2018-12-16T07:21:02.183Z,1013.86
2018-12-16T07:21:42.945Z,1013.85
2018-12-16T07:22:23.698Z,1013.84
2018-12-16T07:23:04.532Z,1013.84
2018-12-16T07:23:45.356Z,1013.84
2018-12-16T07:24:26.147Z,1013.82
2018-12-16T07:25:06.902Z,1013.84
2018-12-16T07:25:47.718Z,1013.85
2018-12-16T07:26:28.502Z,1013.86
2018-12-16T07:27:09.239Z,1013.85
2018-12-16T07:27:50.008Z,1013.87
2018-12-16T07:28:30.714Z,1013.89
2018-12-16T07:29:11.512Z,1013.91
2018-12-16T07:29:52.311Z,1013.93
2018-12-16T07:30:33.207Z,1013.92
2018-12-16T07:31:13.945Z,1013.91
2018-12-16T07:31:54.638Z,1013.88
2018-12-16T07:32:35.481Z,1013.88
2018-12-16T07:33:16.255Z,1013.87
2018-12-16T07:33:56.961Z,1013.9
2018-12-16T07:34:37.688Z,1013.92
2018-12-16T07:35:18.404Z,1013.89
2018-12-16T07:35:59.171Z,1013.9
2018-12-16T07:36:39.920Z,1013.88
2018-12-16T07:37:20.714Z,1013.83
2018-12-16T07:38:01.480Z,1013.84
2018-12-16T07:38:42.246Z,1013.89
2018-12-16T07:39:23.064Z,1013.87
2018-12-16T07:40:03.829Z,1013.82
2018-12-16T07:40:44.606Z,1013.83
2018-12-16T07:41:25.321Z,1013.83
2018-12-16T07:42:06.091Z,1013.87
2018-12-16T07:42:47.020Z,1013.87
2018-12-16T07:43:27.823Z,1013.86
2018-12-16T07:44:08.744Z,1013.91
2018-12-16T07:44:49.493Z,1013.9
2018-12-16T07:45:30.264Z,1013.92
2018-12-16T07:46:10.990Z,1013.97
2018-12-16T07:46:51.858Z,1013.97
2018-12-16T07:47:32.624Z,1013.97
2018-12-16T07:48:13.412Z,1013.93
2018-12-16T07:48:54.198Z,1013.95
2018-12-16T07:49:34.948Z,1013.97
2018-12-16T07:50:15.766Z,1013.98
2018-12-16T07:50:56.558Z,1013.96
2018-12-16T07:51:37.394Z,1013.99
2018-12-16T07:52:18.117Z,1013.97
2018-12-16T07:52:58.876Z,1013.94
2018-12-16T07:53:39.700Z,1013.94
2018-12-16T07:54:20.446Z,1013.91
2018-12-16T07:55:01.213Z,1013.91
2018-12-16T07:55:42.055Z,1013.89
2018-12-16T07:56:22.985Z,1013.91
2018-12-16T07:57:03.753Z,1013.9
2018-12-16T07:57:44.632Z,1013.97
2018-12-16T07:58:25.335Z,1013.96
2018-12-16T07:59:06.198Z,1013.99
2018-12-16T07:59:47.011Z,1014.03
2018-12-16T08:00:27.702Z,1014.05
2018-12-16T08:01:08.436Z,1014.06
2018-12-16T08:01:49.177Z,1014.03
2018-12-16T08:02:29.983Z,1014.06
2018-12-16T08:03:10.775Z,1014.06
2018-12-16T08:03:51.688Z,1014.09
2018-12-16T08:04:32.968Z,1014.07
2018-12-16T08:05:13.608Z,1014.07
2018-12-16T08:05:54.361Z,1014.06
2018-12-16T08:06:35.261Z,1014.08
2018-12-16T08:07:15.997Z,1014.1
2018-12-16T08:07:56.749Z,1014.12
2018-12-16T08:08:37.550Z,1014.12
2018-12-16T08:09:18.324Z,1014.11
2018-12-16T08:09:59.157Z,1014.08
2018-12-16T08:10:39.877Z,1014.1
2018-12-16T08:11:20.626Z,1014.11
2018-12-16T08:12:01.465Z,1014.07
2018-12-16T08:12:42.291Z,1014.03
2018-12-16T08:13:22.998Z,1014.02
2018-12-16T08:14:03.749Z,1014.02
2018-12-16T08:14:44.452Z,1014.04
2018-12-16T08:15:25.308Z,1014.06